Terminal Aerodrome Forecast
Issued by NWS

Home | Current Version | Previous Version | Text Only | Print | Product List | Glossary Off
Versions: 1 2 3 4 5 6 7 8 9 10 11 12 13

000
FTUS43 KABR 071100
TAFPIR
TAF
KPIR 071130Z 0712/0812 30005KT P6SM SCT150
     FM071900 33010G16KT P6SM SCT050 BKN120
     FM080300 33009KT P6SM SKC=

USA.gov is the U.S. government's official web portal to all federal, state and local government web resources and services.